Time;durP1;ratioP1;P1;durP2;ratioP2;P2;SDS_P1;SDS_P2;PMS_P1;PMS_P2;Temp;Humidity;BMP_temperature;BMP_pressure;BME280_temperature;BME280_humidity;BME280_pressure;Samples;Min_cycle;Max_cycle;Signal;HPM_P1;HPM_P2
2022/08/22 00:03:03;;;;;;;8.02;3.90;;;;;;;;;;5033502;28;20037;-72
2022/08/22 00:06:20;;;;;;;7.72;4.05;;;;;;;;;;5033698;28;20045;-72
2022/08/22 00:09:30;;;;;;;9.52;3.67;;;;;;;;;;5033422;28;20053;-72
2022/08/22 00:12:57;;;;;;;7.10;3.65;;;;;;;;;;5033115;28;20030;-72
2022/08/22 00:16:20;;;;;;;12.77;3.65;;;;;;;;;;5036005;28;20049;-72
2022/08/22 00:19:27;;;;;;;5.70;3.75;;;;;;;;;;5032960;28;20048;-72
2022/08/22 00:22:31;;;;;;;8.63;3.20;;;;;;;;;;5032501;28;20389;-72
2022/08/22 00:25:48;;;;;;;7.15;3.40;;;;;;;;;;5031990;28;20045;-72
2022/08/22 00:29:04;;;;;;;8.38;3.78;;;;;;;;;;5020746;28;20505;-72
2022/08/22 00:32:11;;;;;;;7.43;3.60;;;;;;;;;;5033381;28;20037;-72
2022/08/22 00:35:21;;;;;;;13.00;3.88;;;;;;;;;;5032236;28;20045;-72
2022/08/22 00:38:28;;;;;;;6.75;3.35;;;;;;;;;;5031980;28;20048;-72
2022/08/22 00:41:38;;;;;;;5.35;3.40;;;;;;;;;;5033110;28;20041;-72
2022/08/22 00:45:01;;;;;;;11.85;3.25;;;;;;;;;;5032906;28;20521;-72
2022/08/22 00:48:41;;;;;;;10.98;3.30;;;;;;;;;;5032394;28;20073;-72
2022/08/22 00:51:46;;;;;;;5.85;3.40;;;;;;;;;;4974264;28;20143;-72
2022/08/22 00:55:09;;;;;;;9.35;2.95;;;;;;;;;;5020585;28;20045;-72
2022/08/22 00:58:16;;;;;;;6.75;3.17;;;;;;;;;;5032867;28;20037;-72
2022/08/22 01:01:25;;;;;;;10.23;3.50;;;;;;;;;;5033072;28;20038;-72
2022/08/22 01:04:30;;;;;;;12.80;3.90;;;;;;;;;;5032743;28;20044;-72
2022/08/22 01:07:42;;;;;;;7.00;3.38;;;;;;;;;;5032434;28;20044;-72
2022/08/22 01:10:47;;;;;;;8.15;4.47;;;;;;;;;;5032649;28;20042;-72
2022/08/22 01:13:59;;;;;;;6.38;3.60;;;;;;;;;;5032229;28;20045;-72
2022/08/22 01:17:18;;;;;;;6.10;3.15;;;;;;;;;;5008651;28;20381;-72
2022/08/22 01:20:58;;;;;;;11.95;4.95;;;;;;;;;;5032382;28;20041;-72
2022/08/22 01:24:27;;;;;;;21.80;8.55;;;;;;;;;;5032075;28;20511;-72
2022/08/22 01:27:47;;;;;;;20.42;9.60;;;;;;;;;;5031858;28;20536;-72
2022/08/22 01:31:10;;;;;;;37.75;17.60;;;;;;;;;;5032182;28;20056;-72
2022/08/22 01:34:24;;;;;;;40.45;20.35;;;;;;;;;;5032071;28;20409;-72
2022/08/22 01:37:28;;;;;;;28.40;14.68;;;;;;;;;;5031945;28;20032;-72
2022/08/22 01:40:38;;;;;;;18.85;10.05;;;;;;;;;;5031578;28;20044;-72
2022/08/22 01:43:53;;;;;;;12.15;6.88;;;;;;;;;;5031802;28;20037;-72
2022/08/22 01:47:04;;;;;;;11.13;5.10;;;;;;;;;;5031309;28;20033;-72
2022/08/22 01:50:12;;;;;;;8.55;4.53;;;;;;;;;;5031577;28;20052;-72
2022/08/22 01:53:17;;;;;;;7.93;3.83;;;;;;;;;;5031523;28;20042;-72
2022/08/22 01:56:24;;;;;;;6.88;3.47;;;;;;;;;;5031323;28;20037;-72
2022/08/22 01:59:38;;;;;;;3.33;2.22;;;;;;;;;;5031398;28;20493;-72
2022/08/22 02:03:06;;;;;;;4.30;2.22;;;;;;;;;;5031668;28;20037;-72
2022/08/22 02:06:15;;;;;;;8.80;2.47;;;;;;;;;;5031454;28;20037;-72
2022/08/22 02:09:26;;;;;;;4.25;1.80;;;;;;;;;;5031453;28;20053;-72
2022/08/22 02:12:42;;;;;;;4.13;1.70;;;;;;;;;;5007819;28;20037;-72
2022/08/22 02:15:51;;;;;;;3.25;1.85;;;;;;;;;;5031086;28;20041;-72
2022/08/22 02:19:05;;;;;;;4.35;1.60;;;;;;;;;;5031020;28;20169;-72
2022/08/22 02:22:12;;;;;;;4.45;1.60;;;;;;;;;;5030957;28;20033;-72
2022/08/22 02:25:21;;;;;;;4.05;2.20;;;;;;;;;;5030714;28;20050;-72
2022/08/22 02:28:25;;;;;;;5.60;2.10;;;;;;;;;;5030884;28;20374;-72
2022/08/22 02:31:39;;;;;;;5.25;1.65;;;;;;;;;;5030994;28;20042;-72
2022/08/22 02:34:47;;;;;;;5.13;1.90;;;;;;;;;;5030842;28;20037;-72
2022/08/22 02:37:55;;;;;;;6.88;1.80;;;;;;;;;;5031096;28;20148;-72
2022/08/22 02:41:06;;;;;;;9.77;2.13;;;;;;;;;;5030919;28;20374;-72
2022/08/22 02:44:19;;;;;;;5.78;1.83;;;;;;;;;;5031073;28;20402;-72
2022/08/22 02:47:46;;;;;;;6.32;1.92;;;;;;;;;;5018236;28;20394;-72
2022/08/22 02:51:00;;;;;;;3.40;2.03;;;;;;;;;;5018707;28;20041;-72
2022/08/22 02:54:08;;;;;;;6.82;2.15;;;;;;;;;;5030673;28;20046;-72
2022/08/22 02:57:16;;;;;;;4.97;1.95;;;;;;;;;;5029755;28;20485;-72
2022/08/22 03:00:29;;;;;;;7.15;2.67;;;;;;;;;;5030843;28;20046;-72
2022/08/22 03:03:37;;;;;;;5.07;2.33;;;;;;;;;;5030942;28;20034;-72
2022/08/22 03:06:43;;;;;;;5.72;2.53;;;;;;;;;;5031549;28;20049;-72
2022/08/22 03:10:10;;;;;;;6.07;2.33;;;;;;;;;;5034371;28;20041;-72
2022/08/22 03:13:25;;;;;;;6.40;2.30;;;;;;;;;;5011459;28;20037;-72
2022/08/22 03:16:40;;;;;;;5.82;2.38;;;;;;;;;;5034426;28;20038;-72
2022/08/22 03:19:56;;;;;;;6.22;2.00;;;;;;;;;;5034631;28;20041;-72
2022/08/22 03:23:06;;;;;;;5.60;2.30;;;;;;;;;;5034644;28;20037;-72
2022/08/22 03:26:25;;;;;;;9.43;1.98;;;;;;;;;;5010582;28;20050;-72
2022/08/22 03:29:38;;;;;;;5.75;2.78;;;;;;;;;;5034521;28;20050;-72
2022/08/22 03:32:46;;;;;;;5.90;2.47;;;;;;;;;;5034241;28;20406;-72
2022/08/22 03:35:57;;;;;;;6.05;2.33;;;;;;;;;;5034097;28;20382;-72
2022/08/22 03:39:07;;;;;;;10.50;2.10;;;;;;;;;;5034353;28;20041;-72
2022/08/22 03:42:23;;;;;;;4.50;2.00;;;;;;;;;;5034375;28;20519;-72
2022/08/22 03:45:28;;;;;;;5.43;2.55;;;;;;;;;;5034211;28;20481;-72
2022/08/22 03:48:41;;;;;;;5.55;2.40;;;;;;;;;;5033897;28;20049;-72
2022/08/22 03:51:48;;;;;;;6.05;1.92;;;;;;;;;;5034089;28;20397;-72
2022/08/22 03:54:53;;;;;;;5.68;1.70;;;;;;;;;;5034080;28;20037;-72
2022/08/22 03:58:10;;;;;;;4.63;2.20;;;;;;;;;;5032958;28;20096;-72
2022/08/22 04:01:32;;;;;;;7.07;3.40;;;;;;;;;;5034095;28;20140;-72
2022/08/22 04:04:52;;;;;;;4.75;2.17;;;;;;;;;;5033553;28;20478;-72
2022/08/22 04:08:03;;;;;;;4.15;1.95;;;;;;;;;;5033199;28;20046;-72
2022/08/22 04:11:23;;;;;;;4.53;1.75;;;;;;;;;;5033567;28;20033;-72
2022/08/22 04:14:37;;;;;;;6.30;2.08;;;;;;;;;;5033416;28;20037;-72
2022/08/22 04:18:00;;;;;;;3.90;1.98;;;;;;;;;;5009542;28;20037;-72
2022/08/22 04:21:28;;;;;;;5.78;2.00;;;;;;;;;;5033358;28;20033;-72
2022/08/22 04:24:48;;;;;;;5.30;1.90;;;;;;;;;;5033327;28;20041;-71
2022/08/22 04:28:00;;;;;;;7.00;2.20;;;;;;;;;;5033159;28;20045;-72
2022/08/22 04:31:08;;;;;;;6.13;2.03;;;;;;;;;;5033318;28;20351;-72
2022/08/22 04:34:47;;;;;;;8.38;2.15;;;;;;;;;;5033051;28;20034;-72
2022/08/22 04:38:10;;;;;;;4.18;1.92;;;;;;;;;;4974897;28;20038;-72
2022/08/22 04:41:18;;;;;;;7.28;2.28;;;;;;;;;;5033724;28;20038;-72
2022/08/22 04:44:26;;;;;;;5.55;1.85;;;;;;;;;;5032946;28;20485;-72
2022/08/22 04:47:34;;;;;;;4.45;2.05;;;;;;;;;;5032774;28;20370;-72
2022/08/22 04:50:45;;;;;;;2.97;2.30;;;;;;;;;;5009571;28;20033;-72
2022/08/22 04:53:52;;;;;;;14.50;3.25;;;;;;;;;;5033098;28;20034;-72
2022/08/22 04:57:15;;;;;;;7.78;3.55;;;;;;;;;;5032690;28;20536;-72
2022/08/22 05:00:19;;;;;;;8.65;3.88;;;;;;;;;;5031962;28;20049;-72
2022/08/22 05:03:25;;;;;;;14.02;4.20;;;;;;;;;;5031930;28;20037;-72
2022/08/22 05:06:31;;;;;;;12.93;7.95;;;;;;;;;;5032166;28;20288;-72
2022/08/22 05:09:37;;;;;;;30.75;15.77;;;;;;;;;;5032378;28;20508;-72
2022/08/22 05:12:48;;;;;;;22.35;8.15;;;;;;;;;;5032450;28;20040;-72
2022/08/22 05:15:57;;;;;;;10.70;4.80;;;;;;;;;;5020211;28;20068;-72
2022/08/22 05:19:04;;;;;;;9.45;4.13;;;;;;;;;;5032429;28;20041;-72
2022/08/22 05:22:15;;;;;;;9.43;5.32;;;;;;;;;;5032105;28;20038;-73
2022/08/22 05:25:28;;;;;;;10.10;4.75;;;;;;;;;;5031956;28;20057;-72
2022/08/22 05:28:34;;;;;;;15.25;6.07;;;;;;;;;;5031713;28;20064;-72
2022/08/22 05:31:48;;;;;;;15.32;7.05;;;;;;;;;;5031875;28;20048;-72
2022/08/22 05:34:55;;;;;;;11.77;5.68;;;;;;;;;;5032201;28;20060;-72
2022/08/22 05:38:00;;;;;;;13.60;5.72;;;;;;;;;;5031728;28;20425;-72
2022/08/22 05:41:12;;;;;;;9.55;4.47;;;;;;;;;;5032130;28;20040;-72
2022/08/22 05:44:17;;;;;;;9.88;4.70;;;;;;;;;;5032079;28;20045;-72
2022/08/22 05:47:39;;;;;;;14.20;3.95;;;;;;;;;;5031431;28;20506;-72
2022/08/22 05:50:48;;;;;;;9.45;4.22;;;;;;;;;;5031883;28;20406;-72
2022/08/22 05:53:59;;;;;;;14.82;4.00;;;;;;;;;;5031506;28;20037;-72
2022/08/22 05:57:16;;;;;;;5.30;2.97;;;;;;;;;;5031295;28;20044;-73
2022/08/22 06:00:22;;;;;;;12.55;3.20;;;;;;;;;;5030772;28;20033;-72
2022/08/22 06:03:38;;;;;;;5.53;2.90;;;;;;;;;;5031174;28;20052;-72
2022/08/22 06:06:48;;;;;;;6.32;2.75;;;;;;;;;;5031327;28;20045;-69
2022/08/22 06:10:02;;;;;;;5.95;2.50;;;;;;;;;;5030701;28;20049;-69
2022/08/22 06:13:10;;;;;;;4.75;2.63;;;;;;;;;;5030297;28;20034;-69
2022/08/22 06:16:19;;;;;;;6.95;2.75;;;;;;;;;;5031361;28;20041;-69
2022/08/22 06:19:24;;;;;;;7.22;2.80;;;;;;;;;;5007326;28;20041;-69
2022/08/22 06:22:30;;;;;;;9.15;2.50;;;;;;;;;;5031209;28;20045;-69
2022/08/22 06:25:38;;;;;;;4.25;2.22;;;;;;;;;;5030584;28;20072;-70
2022/08/22 06:28:45;;;;;;;4.75;2.50;;;;;;;;;;5030677;28;20085;-70
2022/08/22 06:31:50;;;;;;;10.60;2.40;;;;;;;;;;5030885;28;20042;-70
2022/08/22 06:34:56;;;;;;;5.32;2.58;;;;;;;;;;5030835;28;20045;-68
2022/08/22 06:38:02;;;;;;;12.05;6.55;;;;;;;;;;5007371;28;20501;-69
2022/08/22 06:41:07;;;;;;;16.73;6.45;;;;;;;;;;5029903;28;20048;-70
2022/08/22 06:44:14;;;;;;;8.07;2.65;;;;;;;;;;5030509;28;20045;-69
2022/08/22 06:47:24;;;;;;;4.20;1.60;;;;;;;;;;5030779;28;20029;-69
2022/08/22 06:50:36;;;;;;;4.60;1.30;;;;;;;;;;5030890;28;20046;-71
2022/08/22 06:53:52;;;;;;;4.00;1.35;;;;;;;;;;5030663;28;20029;-69
2022/08/22 06:56:57;;;;;;;7.40;1.48;;;;;;;;;;5030641;28;20488;-71
2022/08/22 07:00:04;;;;;;;25.60;5.90;;;;;;;;;;5030790;28;20041;-72
2022/08/22 07:03:12;;;;;;;3.92;1.30;;;;;;;;;;5031102;28;20065;-71
2022/08/22 07:06:29;;;;;;;3.92;1.48;;;;;;;;;;5030682;28;20034;-73
2022/08/22 07:09:37;;;;;;;4.47;1.60;;;;;;;;;;5018440;28;20458;-82
2022/08/22 07:12:47;;;;;;;3.53;1.20;;;;;;;;;;5030739;28;20224;-72
2022/08/22 07:15:54;;;;;;;5.22;1.58;;;;;;;;;;5029646;28;20037;-72
2022/08/22 07:18:58;;;;;;;5.53;1.50;;;;;;;;;;5030597;28;20038;-73
2022/08/22 07:22:29;;;;;;;3.40;1.10;;;;;;;;;;5018465;28;20041;-77
2022/08/22 07:25:45;;;;;;;5.50;0.90;;;;;;;;;;5030075;28;20049;-79
2022/08/22 07:28:53;;;;;;;1.45;0.73;;;;;;;;;;5029855;28;20045;-74
2022/08/22 07:32:08;;;;;;;2.50;1.20;;;;;;;;;;5028745;28;20037;-73
2022/08/22 07:35:14;;;;;;;3.75;1.20;;;;;;;;;;5028610;28;20378;-73
2022/08/22 07:38:28;;;;;;;2.33;0.90;;;;;;;;;;5029367;28;20042;-74
2022/08/22 07:41:38;;;;;;;1.92;0.90;;;;;;;;;;5029996;28;20045;-74
2022/08/22 07:44:52;;;;;;;4.20;1.73;;;;;;;;;;5030030;28;20347;-74
2022/08/22 07:48:02;;;;;;;4.28;0.93;;;;;;;;;;5029975;28;20038;-74
2022/08/22 07:51:11;;;;;;;1.00;0.90;;;;;;;;;;5030041;28;20041;-72
2022/08/22 07:54:34;;;;;;;2.72;0.65;;;;;;;;;;5032796;28;20029;-72
2022/08/22 07:57:40;;;;;;;1.40;0.90;;;;;;;;;;5033607;28;20390;-72
2022/08/22 08:00:45;;;;;;;0.93;0.60;;;;;;;;;;5032659;28;20046;-72
2022/08/22 08:03:52;;;;;;;2.55;0.90;;;;;;;;;;5033232;28;20046;-73
2022/08/22 08:06:59;;;;;;;4.22;1.02;;;;;;;;;;5033127;28;20379;-71
2022/08/22 08:10:05;;;;;;;1.73;0.70;;;;;;;;;;5033151;28;20053;-74
2022/08/22 08:13:12;;;;;;;1.70;0.80;;;;;;;;;;5033399;28;20037;-71
2022/08/22 08:16:20;;;;;;;7.18;1.27;;;;;;;;;;5033072;28;20362;-71
2022/08/22 08:19:27;;;;;;;3.55;0.88;;;;;;;;;;5033076;28;20037;-69
2022/08/22 08:22:34;;;;;;;2.72;0.80;;;;;;;;;;5032770;28;20041;-68
2022/08/22 08:25:52;;;;;;;3.97;0.82;;;;;;;;;;5032336;28;20045;-71
2022/08/22 08:28:57;;;;;;;1.23;0.77;;;;;;;;;;5033006;28;20041;-70
2022/08/22 08:32:01;;;;;;;2.95;0.80;;;;;;;;;;5032965;28;20450;-70
2022/08/22 08:35:26;;;;;;;4.85;1.30;;;;;;;;;;5032793;28;20038;-69
2022/08/22 08:38:35;;;;;;;6.45;0.70;;;;;;;;;;5032547;28;20037;-71
2022/08/22 08:41:54;;;;;;;2.95;1.13;;;;;;;;;;5032516;28;20029;-73
2022/08/22 08:45:04;;;;;;;3.58;0.90;;;;;;;;;;5032929;28;20037;-71
2022/08/22 08:48:23;;;;;;;1.57;1.00;;;;;;;;;;5032339;28;20042;-74
2022/08/22 08:51:31;;;;;;;2.60;0.60;;;;;;;;;;5032542;28;20049;-72
2022/08/22 08:54:48;;;;;;;2.47;0.85;;;;;;;;;;5032586;28;20049;-73
2022/08/22 08:57:52;;;;;;;3.55;1.00;;;;;;;;;;5032430;28;20053;-71
2022/08/22 09:01:02;;;;;;;1.63;0.80;;;;;;;;;;5032232;28;20038;-71
2022/08/22 09:04:08;;;;;;;1.45;0.77;;;;;;;;;;5031616;28;20053;-73
2022/08/22 09:07:12;;;;;;;4.38;1.05;;;;;;;;;;5031891;28;20041;-70
2022/08/22 09:10:36;;;;;;;1.60;0.80;;;;;;;;;;5031932;28;20049;-72
2022/08/22 09:13:59;;;;;;;1.83;0.80;;;;;;;;;;5031830;28;20367;-72
2022/08/22 09:17:09;;;;;;;1.20;0.70;;;;;;;;;;5032097;28;20496;-71
2022/08/22 09:20:15;;;;;;;;;;;;;;;;;;5032601;28;20362;-72
2022/08/22 09:23:25;;;;;;;2.97;0.60;;;;;;;;;;5031494;28;20289;-71
2022/08/22 09:26:47;;;;;;;1.95;0.70;;;;;;;;;;5031078;28;20049;-72
2022/08/22 09:30:03;;;;;;;7.85;0.60;;;;;;;;;;5031084;28;20041;-71
2022/08/22 09:33:21;;;;;;;1.00;0.60;;;;;;;;;;5031253;28;20505;-72
2022/08/22 09:36:32;;;;;;;2.97;0.88;;;;;;;;;;5031318;28;20374;-73
2022/08/22 09:39:46;;;;;;;1.52;0.77;;;;;;;;;;5031214;28;20041;-72
2022/08/22 09:43:00;;;;;;;2.17;0.63;;;;;;;;;;5031293;28;20034;-72
2022/08/22 09:46:20;;;;;;;1.40;0.70;;;;;;;;;;5031199;28;20524;-71
2022/08/22 09:49:43;;;;;;;1.77;0.70;;;;;;;;;;5031088;28;20374;-73
2022/08/22 09:52:52;;;;;;;1.92;0.80;;;;;;;;;;5031029;28;20049;-71
2022/08/22 09:56:04;;;;;;;2.45;1.00;;;;;;;;;;5029913;28;20386;-71
2022/08/22 09:59:22;;;;;;;1.75;0.73;;;;;;;;;;5031346;28;20367;-71
2022/08/22 10:02:42;;;;;;;2.67;0.73;;;;;;;;;;5031155;28;20037;-71
2022/08/22 10:05:51;;;;;;;0.50;0.50;;;;;;;;;;5031418;28;20041;-71
2022/08/22 10:09:07;;;;;;;1.35;0.60;;;;;;;;;;5030276;28;20446;-71
2022/08/22 10:12:15;;;;;;;1.20;0.80;;;;;;;;;;5030683;28;20068;-71
2022/08/22 10:15:22;;;;;;;1.13;0.60;;;;;;;;;;5018180;28;20042;-72
2022/08/22 10:18:36;;;;;;;2.13;0.80;;;;;;;;;;5031220;28;20042;-71
2022/08/22 10:21:48;;;;;;;1.00;0.90;;;;;;;;;;5030263;28;20042;-71
2022/08/22 10:24:59;;;;;;;1.83;0.80;;;;;;;;;;5030577;28;20057;-71
2022/08/22 10:28:03;;;;;;;2.78;0.80;;;;;;;;;;5030660;28;20038;-71
2022/08/22 10:31:11;;;;;;;4.50;0.80;;;;;;;;;;5030063;28;20061;-71
2022/08/22 10:34:20;;;;;;;1.17;0.90;;;;;;;;;;5030210;28;20038;-71
2022/08/22 10:37:31;;;;;;;1.75;0.73;;;;;;;;;;5029281;28;20053;-71
2022/08/22 10:40:39;;;;;;;4.32;1.02;;;;;;;;;;5030758;28;20033;-71
2022/08/22 10:43:52;;;;;;;1.20;1.10;;;;;;;;;;5030241;28;20034;-71
2022/08/22 10:47:00;;;;;;;2.80;0.90;;;;;;;;;;5030337;28;20033;-71
2022/08/22 10:50:25;;;;;;;1.80;0.90;;;;;;;;;;5029453;28;20386;-71
2022/08/22 10:53:51;;;;;;;1.35;0.90;;;;;;;;;;5030568;28;20038;-71
2022/08/22 10:57:15;;;;;;;2.55;0.93;;;;;;;;;;5030333;28;20033;-71
2022/08/22 11:00:31;;;;;;;2.53;0.98;;;;;;;;;;5030621;28;20041;-70
2022/08/22 11:03:43;;;;;;;2.77;1.10;;;;;;;;;;5030489;28;20033;-71
2022/08/22 11:06:53;;;;;;;1.98;1.00;;;;;;;;;;5030245;28;20041;-70
2022/08/22 11:10:03;;;;;;;4.72;1.17;;;;;;;;;;5030038;28;20046;-71
2022/08/22 11:13:13;;;;;;;2.42;0.90;;;;;;;;;;5030208;28;20046;-71
2022/08/22 11:16:37;;;;;;;4.05;1.25;;;;;;;;;;5029732;28;20033;-71
2022/08/22 11:19:42;;;;;;;2.65;1.55;;;;;;;;;;5029351;28;20037;-71
2022/08/22 11:23:06;;;;;;;4.30;1.35;;;;;;;;;;5030374;28;20042;-71
2022/08/22 11:26:29;;;;;;;2.00;1.00;;;;;;;;;;5029897;28;20053;-71
2022/08/22 11:29:54;;;;;;;3.63;0.80;;;;;;;;;;5032545;28;20375;-71
2022/08/22 11:32:58;;;;;;;1.50;1.10;;;;;;;;;;5034288;28;20037;-71
2022/08/22 11:36:10;;;;;;;1.48;0.80;;;;;;;;;;5033859;28;20033;-71
2022/08/22 11:39:24;;;;;;;1.63;1.00;;;;;;;;;;5033605;28;20033;-71
2022/08/22 11:42:49;;;;;;;4.47;1.30;;;;;;;;;;5034299;28;20046;-72
2022/08/22 11:45:58;;;;;;;1.50;1.00;;;;;;;;;;5033971;28;20037;-72
2022/08/22 11:49:05;;;;;;;7.43;1.30;;;;;;;;;;5033567;28;20049;-72
2022/08/22 11:52:19;;;;;;;3.45;1.67;;;;;;;;;;5033647;28;20037;-71
2022/08/22 11:55:37;;;;;;;1.33;0.93;;;;;;;;;;5033467;28;20042;-71
2022/08/22 11:58:42;;;;;;;1.23;1.00;;;;;;;;;;5033424;28;20037;-72
2022/08/22 12:01:52;;;;;;;3.78;1.40;;;;;;;;;;5033912;28;20038;-72
2022/08/22 12:04:59;;;;;;;1.40;0.90;;;;;;;;;;5033629;28;20042;-72
2022/08/22 12:08:11;;;;;;;1.67;0.93;;;;;;;;;;5033290;28;20045;-72
2022/08/22 12:11:15;;;;;;;1.98;1.13;;;;;;;;;;5033572;28;20049;-71
2022/08/22 12:14:37;;;;;;;2.30;1.58;;;;;;;;;;5033542;28;20359;-72
2022/08/22 12:17:48;;;;;;;1.92;1.50;;;;;;;;;;5033157;28;20050;-72
2022/08/22 12:21:00;;;;;;;4.10;1.75;;;;;;;;;;5032676;28;20041;-71
2022/08/22 12:24:14;;;;;;;2.00;1.23;;;;;;;;;;5033698;28;20037;-71
2022/08/22 12:27:28;;;;;;;1.30;1.20;;;;;;;;;;5032881;28;20042;-71
2022/08/22 12:30:46;;;;;;;11.90;2.20;;;;;;;;;;5032965;28;20497;-71
2022/08/22 12:33:56;;;;;;;2.65;1.20;;;;;;;;;;5032586;28;20049;-71
2022/08/22 12:37:03;;;;;;;2.97;1.50;;;;;;;;;;5032787;28;20374;-71
2022/08/22 12:40:26;;;;;;;4.10;1.58;;;;;;;;;;5032732;28;20037;-71
2022/08/22 12:43:35;;;;;;;3.70;1.92;;;;;;;;;;5031920;28;20034;-71
2022/08/22 12:46:42;;;;;;;4.32;1.30;;;;;;;;;;5031825;28;20489;-71
2022/08/22 12:49:49;;;;;;;3.15;1.20;;;;;;;;;;5032456;28;20049;-71
2022/08/22 12:53:00;;;;;;;2.67;1.13;;;;;;;;;;5032572;28;20485;-71
2022/08/22 12:56:11;;;;;;;3.80;1.45;;;;;;;;;;5032591;28;20038;-71
2022/08/22 12:59:21;;;;;;;1.73;1.10;;;;;;;;;;5031832;28;20033;-71
2022/08/22 13:02:25;;;;;;;;;;;;;;;;;;5020868;28;20053;-71
2022/08/22 13:05:30;;;;;;;3.17;1.20;;;;;;;;;;5031626;28;19916;-71
2022/08/22 13:08:38;;;;;;;2.08;1.20;;;;;;;;;;5032214;28;20367;-71
2022/08/22 13:11:43;;;;;;;6.00;1.27;;;;;;;;;;5032156;28;20037;-71
2022/08/22 13:14:50;;;;;;;3.85;1.00;;;;;;;;;;5032109;28;20426;-71
2022/08/22 13:17:55;;;;;;;3.90;1.30;;;;;;;;;;5032253;28;20038;-71
2022/08/22 13:21:02;;;;;;;2.53;1.27;;;;;;;;;;5032294;28;20037;-71
2022/08/22 13:24:09;;;;;;;5.07;1.30;;;;;;;;;;5031263;28;20033;-71
2022/08/22 13:27:19;;;;;;;6.00;1.75;;;;;;;;;;5031081;28;20378;-72
2022/08/22 13:30:28;;;;;;;2.60;1.50;;;;;;;;;;5031786;28;20053;-71
2022/08/22 13:33:34;;;;;;;4.68;1.20;;;;;;;;;;5031902;28;20268;-71
2022/08/22 13:36:49;;;;;;;4.28;1.55;;;;;;;;;;5031989;28;20050;-71
2022/08/22 13:39:57;;;;;;;3.20;1.40;;;;;;;;;;5030896;28;20033;-71
2022/08/22 13:43:05;;;;;;;5.20;1.30;;;;;;;;;;5032154;28;20041;-71
2022/08/22 13:46:10;;;;;;;4.28;1.35;;;;;;;;;;5030638;28;20033;-71
2022/08/22 13:49:17;;;;;;;5.22;1.55;;;;;;;;;;5031803;28;20041;-71
2022/08/22 13:52:25;;;;;;;4.75;1.75;;;;;;;;;;5031252;28;20037;-71
2022/08/22 13:55:35;;;;;;;3.08;1.40;;;;;;;;;;5031314;28;20041;-72
2022/08/22 13:58:42;;;;;;;8.38;1.77;;;;;;;;;;5031300;28;20041;-72
2022/08/22 14:01:47;;;;;;;3.50;1.30;;;;;;;;;;5019238;28;20033;-71
2022/08/22 14:04:52;;;;;;;5.88;1.75;;;;;;;;;;5031208;28;20041;-71
2022/08/22 14:08:16;;;;;;;8.43;1.58;;;;;;;;;;5030669;28;20041;-71
2022/08/22 14:11:41;;;;;;;24.73;2.75;;;;;;;;;;5019460;28;20045;-71
2022/08/22 14:14:48;;;;;;;19.95;2.80;;;;;;;;;;5031207;28;20101;-70
2022/08/22 14:17:55;;;;;;;15.80;3.83;;;;;;;;;;5030298;28;20041;-70
2022/08/22 14:21:18;;;;;;;18.02;4.38;;;;;;;;;;5031292;28;20048;-70
2022/08/22 14:24:27;;;;;;;6.85;2.50;;;;;;;;;;5030994;28;20064;-70
2022/08/22 14:27:58;;;;;;;12.65;2.53;;;;;;;;;;5031288;28;20488;-70
2022/08/22 14:31:02;;;;;;;;;;;;;;;;;;5031392;28;20052;-71
2022/08/22 14:34:09;;;;;;;15.10;3.50;;;;;;;;;;5030863;28;19924;-70
2022/08/22 14:37:20;;;;;;;10.75;3.20;;;;;;;;;;5031537;28;20405;-70
2022/08/22 14:40:28;;;;;;;10.82;3.53;;;;;;;;;;5030777;28;20037;-70
2022/08/22 14:43:32;;;;;;;18.70;7.45;;;;;;;;;;5031483;28;20048;-71
2022/08/22 14:46:54;;;;;;;17.00;4.45;;;;;;;;;;5029673;28;20048;-71
2022/08/22 14:50:01;;;;;;;8.15;3.05;;;;;;;;;;5031166;28;20056;-71
2022/08/22 14:53:25;;;;;;;10.35;2.80;;;;;;;;;;5030448;28;20473;-71
2022/08/22 14:56:29;;;;;;;8.23;2.90;;;;;;;;;;5035970;28;20048;-70
2022/08/22 14:59:37;;;;;;;11.25;3.15;;;;;;;;;;5030533;28;20026;-70
2022/08/22 15:02:41;;;;;;;5.78;1.50;;;;;;;;;;5033650;28;20044;-71
2022/08/22 15:05:48;;;;;;;4.63;1.60;;;;;;;;;;5034784;28;20041;-71
2022/08/22 15:08:53;;;;;;;5.72;1.40;;;;;;;;;;5034623;28;20041;-71
2022/08/22 15:11:58;;;;;;;3.13;1.45;;;;;;;;;;5034918;28;20469;-70
2022/08/22 15:15:08;;;;;;;5.53;1.45;;;;;;;;;;5034570;28;20053;-71
2022/08/22 15:18:18;;;;;;;4.63;1.70;;;;;;;;;;5034433;28;20037;-71
2022/08/22 15:21:23;;;;;;;3.03;1.20;;;;;;;;;;5034559;28;20045;-71
2022/08/22 15:24:28;;;;;;;3.95;1.27;;;;;;;;;;5033396;28;20037;-71
2022/08/22 15:27:34;;;;;;;3.20;1.30;;;;;;;;;;5034488;28;20045;-70
2022/08/22 15:30:58;;;;;;;4.05;1.95;;;;;;;;;;5035944;28;20049;-69
2022/08/22 15:34:26;;;;;;;8.20;2.10;;;;;;;;;;5034179;28;20033;-70
2022/08/22 15:37:32;;;;;;;3.05;1.55;;;;;;;;;;5033992;28;20033;-70
2022/08/22 15:40:44;;;;;;;6.38;1.92;;;;;;;;;;5034122;28;20045;-72
2022/08/22 15:43:53;;;;;;;4.47;2.30;;;;;;;;;;5033112;28;20037;-71
2022/08/22 15:47:00;;;;;;;4.63;2.10;;;;;;;;;;5033133;28;20038;-72
2022/08/22 15:50:10;;;;;;;7.15;2.70;;;;;;;;;;5033036;28;20402;-73
2022/08/22 15:53:22;;;;;;;6.88;2.65;;;;;;;;;;5033618;28;20030;-73
2022/08/22 15:56:28;;;;;;;12.13;2.63;;;;;;;;;;5033519;28;20037;-73
2022/08/22 15:59:38;;;;;;;13.93;3.05;;;;;;;;;;5033555;28;20048;-73
2022/08/22 16:02:57;;;;;;;6.85;2.80;;;;;;;;;;5032506;28;20397;-73
2022/08/22 16:06:04;;;;;;;8.98;2.90;;;;;;;;;;5033428;28;20045;-74
2022/08/22 16:09:26;;;;;;;9.75;3.00;;;;;;;;;;5033534;28;20046;-74
2022/08/22 16:12:32;;;;;;;10.07;2.83;;;;;;;;;;5033362;28;20053;-74
2022/08/22 16:15:46;;;;;;;4.88;2.90;;;;;;;;;;5032561;28;20496;-74
2022/08/22 16:18:50;;;;;;;9.30;3.10;;;;;;;;;;5033442;28;20382;-73
2022/08/22 16:21:55;;;;;;;9.32;2.88;;;;;;;;;;5033059;28;20049;-74
2022/08/22 16:25:01;;;;;;;7.75;2.47;;;;;;;;;;5032086;28;20042;-73
2022/08/22 16:28:18;;;;;;;8.77;2.63;;;;;;;;;;5033056;28;20125;-74
2022/08/22 16:31:28;;;;;;;12.05;3.22;;;;;;;;;;5031894;28;20042;-74
2022/08/22 16:34:33;;;;;;;7.05;2.90;;;;;;;;;;5032131;28;20048;-74
2022/08/22 16:37:46;;;;;;;10.80;3.42;;;;;;;;;;5033027;28;20037;-74
2022/08/22 16:40:50;;;;;;;13.07;3.08;;;;;;;;;;5031662;28;20052;-74
2022/08/22 16:44:12;;;;;;;7.15;3.03;;;;;;;;;;5032512;28;20044;-74
2022/08/22 16:47:17;;;;;;;11.15;3.28;;;;;;;;;;5032628;28;20042;-74
2022/08/22 16:50:21;;;;;;;10.02;2.92;;;;;;;;;;5031262;28;20068;-74
2022/08/22 16:53:28;;;;;;;11.55;3.20;;;;;;;;;;5032498;28;20393;-74
2022/08/22 16:56:39;;;;;;;5.57;2.50;;;;;;;;;;5031775;28;20048;-74
2022/08/22 16:59:48;;;;;;;9.13;3.08;;;;;;;;;;5031529;28;20037;-74
2022/08/22 17:02:58;;;;;;;5.60;2.97;;;;;;;;;;5032321;28;20045;-74
2022/08/22 17:06:22;;;;;;;7.68;2.83;;;;;;;;;;5032370;28;20050;-74
2022/08/22 17:09:39;;;;;;;7.72;2.78;;;;;;;;;;5032915;28;20038;-74
2022/08/22 17:13:06;;;;;;;8.00;2.38;;;;;;;;;;5032015;28;20038;-74
2022/08/22 17:16:31;;;;;;;9.75;3.17;;;;;;;;;;5031966;28;20465;-74
2022/08/22 17:19:42;;;;;;;5.50;2.65;;;;;;;;;;5032240;28;20383;-74
2022/08/22 17:23:05;;;;;;;4.80;3.15;;;;;;;;;;5031896;28;20478;-74
2022/08/22 17:26:18;;;;;;;7.47;5.45;;;;;;;;;;5030624;28;20050;-74
2022/08/22 17:29:35;;;;;;;12.65;6.93;;;;;;;;;;5031810;28;20496;-74
2022/08/22 17:32:39;;;;;;;9.60;5.70;;;;;;;;;;5031845;28;20052;-73
2022/08/22 17:35:54;;;;;;;12.52;5.38;;;;;;;;;;5031699;28;20037;-74
2022/08/22 17:39:01;;;;;;;6.85;3.97;;;;;;;;;;5031110;28;20044;-74
2022/08/22 17:42:20;;;;;;;7.82;3.22;;;;;;;;;;5031590;28;20033;-74
2022/08/22 17:45:44;;;;;;;6.15;2.90;;;;;;;;;;5030745;28;20461;-74
2022/08/22 17:48:53;;;;;;;12.25;3.15;;;;;;;;;;5031545;28;20500;-74
2022/08/22 17:52:16;;;;;;;13.60;3.65;;;;;;;;;;5031441;28;20053;-74
2022/08/22 17:55:30;;;;;;;8.00;2.92;;;;;;;;;;5031530;28;20049;-74
2022/08/22 17:58:41;;;;;;;7.82;2.60;;;;;;;;;;5031678;28;20060;-73
2022/08/22 18:01:45;;;;;;;;;;;;;;;;;;5031571;28;20478;-74
2022/08/22 18:05:01;;;;;;;5.60;2.83;;;;;;;;;;5030449;28;19932;-74
2022/08/22 18:08:12;;;;;;;5.07;3.13;;;;;;;;;;5031422;28;20370;-74
2022/08/22 18:11:23;;;;;;;6.45;3.28;;;;;;;;;;5031166;28;20049;-74
2022/08/22 18:14:38;;;;;;;10.73;3.55;;;;;;;;;;5031354;28;20037;-74
2022/08/22 18:17:50;;;;;;;10.27;4.05;;;;;;;;;;5031398;28;20045;-74
2022/08/22 18:20:59;;;;;;;8.38;4.45;;;;;;;;;;5030473;28;20048;-74
2022/08/22 18:24:09;;;;;;;13.45;4.70;;;;;;;;;;5030576;28;20037;-73
2022/08/22 18:27:17;;;;;;;11.13;4.93;;;;;;;;;;5029973;28;20084;-74
2022/08/22 18:30:21;;;;;;;8.20;4.30;;;;;;;;;;5030846;28;20060;-74
2022/08/22 18:33:45;;;;;;;9.05;4.10;;;;;;;;;;5031013;28;20038;-73
2022/08/22 18:36:53;;;;;;;8.23;3.70;;;;;;;;;;5030796;28;20033;-73
2022/08/22 18:40:21;;;;;;;12.80;3.83;;;;;;;;;;5030086;28;20339;-73
2022/08/22 18:43:39;;;;;;;12.65;4.05;;;;;;;;;;5030804;28;20052;-73
2022/08/22 18:46:45;;;;;;;6.47;3.70;;;;;;;;;;5031127;28;20044;-73
2022/08/22 18:49:53;;;;;;;7.45;3.40;;;;;;;;;;5029908;28;20049;-73
2022/08/22 18:52:58;;;;;;;9.55;3.20;;;;;;;;;;5030634;28;20041;-73
2022/08/22 18:56:10;;;;;;;8.70;3.47;;;;;;;;;;5030636;28;20481;-73
2022/08/22 18:59:29;;;;;;;8.38;4.10;;;;;;;;;;5030755;28;20037;-73
2022/08/22 19:02:34;;;;;;;12.45;4.10;;;;;;;;;;5030934;28;20041;-73
2022/08/22 19:05:51;;;;;;;10.30;4.25;;;;;;;;;;5029731;28;20052;-73
2022/08/22 19:09:07;;;;;;;10.50;4.43;;;;;;;;;;5031004;28;20067;-73